createdAt,value
2022-11-03T00:02:12.990Z,12.50
2022-11-03T00:04:42.095Z,11.52
2022-11-03T00:07:10.338Z,12.00
2022-11-03T00:09:38.717Z,10.85
2022-11-03T00:12:08.376Z,11.27
2022-11-03T00:14:36.398Z,11.80
2022-11-03T00:17:04.788Z,10.55
2022-11-03T00:19:32.838Z,9.68
2022-11-03T00:22:00.846Z,10.02
2022-11-03T00:24:29.391Z,9.70
2022-11-03T00:26:57.238Z,8.65
2022-11-03T00:29:27.300Z,9.95
2022-11-03T00:31:55.603Z,9.65
2022-11-03T00:34:23.902Z,8.48
2022-11-03T00:36:51.917Z,9.45
2022-11-03T00:39:19.809Z,10.25
2022-11-03T00:41:48.518Z,10.43
2022-11-03T00:44:16.620Z,9.93
2022-11-03T00:46:45.545Z,14.25
2022-11-03T00:49:13.503Z,13.95
2022-11-03T00:51:41.470Z,10.13
2022-11-03T00:54:09.564Z,10.20
2022-11-03T00:56:39.821Z,9.10
2022-11-03T00:59:09.325Z,10.48
2022-11-03T01:01:46.774Z,10.80
2022-11-03T01:04:36.309Z,10.63
2022-11-03T01:07:06.277Z,9.50
2022-11-03T01:09:38.924Z,9.18
2022-11-03T01:12:17.070Z,10.00
2022-11-03T01:14:44.956Z,8.98
2022-11-03T01:17:24.784Z,15.88
2022-11-03T01:19:54.252Z,17.27
2022-11-03T01:22:23.945Z,14.50
2022-11-03T01:24:52.214Z,12.57
2022-11-03T01:27:22.318Z,12.10
2022-11-03T01:29:50.893Z,11.70
2022-11-03T01:32:19.063Z,8.70
2022-11-03T01:34:47.711Z,8.55
2022-11-03T01:37:15.645Z,9.00
2022-11-03T01:39:43.575Z,8.23
2022-11-03T01:42:14.644Z,8.38
2022-11-03T01:44:46.886Z,8.73
2022-11-03T01:47:27.680Z,8.88
2022-11-03T01:50:10.357Z,8.10
2022-11-03T01:52:47.575Z,8.27
2022-11-03T01:55:22.705Z,8.35
2022-11-03T01:58:02.283Z,10.32
2022-11-03T02:00:30.780Z,10.50
2022-11-03T02:03:00.301Z,9.18
2022-11-03T02:05:30.315Z,8.75
2022-11-03T02:08:19.948Z,7.85
2022-11-03T02:10:49.786Z,9.55
2022-11-03T02:13:26.764Z,9.48
2022-11-03T02:16:15.846Z,9.50
2022-11-03T02:18:45.428Z,8.73
2022-11-03T02:21:30.323Z,8.30
2022-11-03T02:24:15.851Z,9.13
2022-11-03T02:26:49.101Z,10.10
2022-11-03T02:32:12.208Z,8.63
2022-11-03T02:34:46.663Z,8.55
2022-11-03T02:37:23.697Z,8.90
2022-11-03T02:40:06.647Z,7.65
2022-11-03T02:42:37.078Z,8.27
2022-11-03T02:45:13.330Z,8.07
2022-11-03T02:47:46.624Z,7.70
2022-11-03T02:50:14.541Z,8.43
2022-11-03T02:52:46.736Z,7.82
2022-11-03T02:55:30.141Z,8.20
2022-11-03T03:00:33.075Z,8.40
2022-11-03T03:03:09.182Z,10.20
2022-11-03T03:05:41.148Z,9.82
2022-11-03T03:08:12.172Z,11.27
2022-11-03T03:10:43.923Z,12.43
2022-11-03T03:13:17.700Z,11.63
2022-11-03T03:16:20.867Z,9.70
2022-11-03T03:19:08.606Z,8.90
2022-11-03T03:21:45.056Z,8.55
2022-11-03T03:24:25.691Z,7.90
2022-11-03T03:26:59.398Z,9.32
2022-11-03T03:29:33.539Z,8.65
2022-11-03T03:32:06.683Z,8.63
2022-11-03T03:34:37.760Z,8.93
2022-11-03T03:37:07.991Z,8.55
2022-11-03T03:39:39.125Z,8.50
2022-11-03T03:42:10.817Z,9.95
2022-11-03T03:44:40.688Z,12.10
2022-11-03T03:47:18.248Z,11.25
2022-11-03T03:49:46.246Z,9.35
2022-11-03T03:52:15.241Z,7.88
2022-11-03T03:54:43.576Z,8.02
2022-11-03T03:57:26.076Z,8.25
2022-11-03T03:59:54.186Z,7.57
2022-11-03T04:02:22.411Z,8.38
2022-11-03T04:04:50.799Z,9.15
2022-11-03T04:07:42.497Z,9.13
2022-11-03T04:10:11.773Z,9.07
2022-11-03T04:13:02.800Z,8.77
2022-11-03T04:15:51.015Z,8.45
2022-11-03T04:18:39.887Z,7.95
2022-11-03T04:21:31.428Z,7.80
2022-11-03T04:24:00.573Z,8.38
2022-11-03T04:26:29.105Z,9.50
2022-11-03T04:28:58.853Z,9.07
2022-11-03T04:31:36.622Z,9.35
2022-11-03T04:34:10.416Z,9.70
2022-11-03T04:36:38.819Z,8.25
2022-11-03T04:39:20.242Z,8.07
2022-11-03T04:41:48.795Z,9.48
2022-11-03T04:44:17.930Z,7.53
2022-11-03T04:46:47.278Z,7.60
2022-11-03T04:49:22.222Z,7.80
2022-11-03T04:51:50.669Z,8.18
2022-11-03T04:54:23.788Z,9.02
2022-11-03T04:56:52.487Z,8.15
2022-11-03T04:59:20.481Z,7.68
2022-11-03T05:01:49.378Z,7.68
2022-11-03T05:04:18.494Z,8.10
2022-11-03T05:06:56.319Z,7.72
2022-11-03T05:09:28.174Z,8.45
2022-11-03T05:11:57.407Z,8.75
2022-11-03T05:14:30.895Z,8.88
2022-11-03T05:17:01.900Z,9.13
2022-11-03T05:19:34.234Z,11.05
2022-11-03T05:22:04.351Z,10.50
2022-11-03T05:24:33.877Z,10.32
2022-11-03T05:27:01.850Z,9.57
2022-11-03T05:29:38.788Z,8.38
2022-11-03T05:32:35.031Z,9.30
2022-11-03T05:35:04.527Z,9.70
2022-11-03T05:37:35.747Z,8.52
2022-11-03T05:40:24.649Z,8.73
2022-11-03T05:43:02.874Z,9.65
2022-11-03T05:45:34.582Z,8.27
2022-11-03T05:48:06.867Z,8.75
2022-11-03T05:50:35.763Z,8.30
2022-11-03T05:53:30.403Z,9.25
2022-11-03T05:56:04.726Z,9.20
2022-11-03T05:58:37.004Z,9.60
2022-11-03T06:01:15.574Z,10.27
2022-11-03T06:03:44.036Z,10.02
2022-11-03T06:06:31.782Z,9.27
2022-11-03T06:09:03.720Z,8.77
2022-11-03T06:11:37.814Z,9.88
2022-11-03T06:14:24.801Z,11.23
2022-11-03T06:16:59.765Z,10.35
2022-11-03T06:19:33.367Z,8.50
2022-11-03T06:22:35.420Z,9.70
2022-11-03T06:25:23.274Z,9.75
2022-11-03T06:27:52.535Z,9.55
2022-11-03T06:30:30.544Z,10.10
2022-11-03T06:33:01.786Z,11.13
2022-11-03T06:35:29.752Z,11.75
2022-11-03T06:37:59.570Z,8.90
2022-11-03T06:40:35.123Z,11.80
2022-11-03T06:43:24.966Z,12.02
2022-11-03T06:45:57.768Z,13.05
2022-11-03T06:48:29.261Z,11.45
2022-11-03T06:50:59.247Z,11.98
2022-11-03T06:53:34.056Z,9.68
2022-11-03T06:56:02.871Z,9.77
2022-11-03T06:58:36.940Z,9.57
2022-11-03T07:01:16.096Z,9.73
2022-11-03T07:03:45.347Z,10.15
2022-11-03T07:06:31.858Z,10.50
2022-11-03T07:09:02.528Z,8.98
2022-11-03T07:11:57.765Z,10.27
2022-11-03T07:14:30.253Z,9.82
2022-11-03T07:17:01.547Z,9.60
2022-11-03T07:19:41.875Z,9.48
2022-11-03T07:22:22.986Z,9.68
2022-11-03T07:24:54.410Z,8.93
2022-11-03T07:27:27.561Z,9.23
2022-11-03T07:30:26.805Z,7.95
2022-11-03T07:33:01.094Z,7.75
2022-11-03T07:36:13.047Z,8.25
2022-11-03T07:38:30.722Z,7.40
2022-11-03T07:41:00.626Z,7.78
2022-11-03T07:43:30.097Z,7.60
2022-11-03T07:46:01.844Z,7.53
2022-11-03T07:48:46.437Z,7.43
2022-11-03T07:51:30.017Z,7.18
2022-11-03T07:54:28.682Z,8.60
2022-11-03T07:57:02.114Z,7.00
2022-11-03T07:59:44.358Z,7.32
2022-11-03T08:02:36.237Z,7.75
2022-11-03T08:05:04.739Z,7.20
2022-11-03T08:07:33.659Z,7.97
2022-11-03T08:10:01.736Z,8.13
2022-11-03T08:12:31.839Z,8.50
2022-11-03T08:15:00.575Z,8.00
2022-11-03T08:17:28.733Z,8.27
2022-11-03T08:19:57.484Z,7.93
2022-11-03T08:22:26.273Z,7.75
2022-11-03T08:24:54.337Z,9.63
2022-11-03T08:27:22.783Z,10.23
2022-11-03T08:29:50.745Z,9.00
2022-11-03T08:32:19.277Z,9.23
2022-11-03T08:34:47.687Z,9.93
2022-11-03T08:37:15.900Z,9.77
2022-11-03T08:39:44.140Z,8.10
2022-11-03T08:42:13.197Z,10.07
2022-11-03T08:44:41.900Z,10.27
2022-11-03T08:47:10.016Z,8.98
2022-11-03T08:49:38.489Z,8.55
2022-11-03T08:52:06.916Z,10.68
2022-11-03T08:54:35.380Z,9.63
2022-11-03T08:57:03.592Z,9.07
2022-11-03T08:59:31.729Z,9.63
2022-11-03T09:02:00.061Z,9.50
2022-11-03T09:04:34.394Z,9.07
2022-11-03T09:07:02.919Z,10.00
2022-11-03T09:12:19.250Z,10.15
2022-11-03T09:14:48.385Z,9.68
2022-11-03T09:17:17.368Z,13.68
2022-11-03T09:19:45.432Z,11.85
2022-11-03T09:22:13.850Z,9.60
2022-11-03T09:24:42.034Z,9.80
2022-11-03T09:27:11.407Z,8.52
2022-11-03T09:30:06.723Z,8.30
2022-11-03T09:32:29.341Z,9.27
2022-11-03T09:34:57.375Z,8.88
2022-11-03T09:37:25.634Z,10.20
2022-11-03T09:39:53.993Z,9.80
2022-11-03T09:42:23.125Z,9.20
2022-11-03T09:44:56.430Z,9.30
2022-11-03T09:47:29.484Z,8.80
2022-11-03T09:49:58.651Z,9.70
2022-11-03T09:52:27.246Z,10.18
2022-11-03T09:54:55.977Z,10.18
2022-11-03T09:57:27.070Z,10.02
2022-11-03T09:59:55.758Z,11.07
2022-11-03T10:02:28.873Z,11.27
2022-11-03T10:05:06.932Z,10.98
2022-11-03T10:07:39.477Z,11.20
2022-11-03T10:10:15.583Z,11.77
2022-11-03T10:12:44.269Z,12.65
2022-11-03T10:15:21.067Z,11.15
2022-11-03T10:17:52.888Z,12.25
2022-11-03T10:20:22.524Z,12.52
2022-11-03T10:22:55.517Z,13.07
2022-11-03T10:28:22.371Z,12.80
2022-11-03T10:33:41.440Z,13.75
2022-11-03T10:36:16.068Z,13.75
2022-11-03T10:38:45.123Z,13.35
2022-11-03T10:41:18.075Z,13.10
2022-11-03T10:44:11.770Z,11.15
2022-11-03T10:46:56.082Z,9.85
2022-11-03T10:49:25.208Z,10.07
2022-11-03T10:52:16.417Z,10.85
2022-11-03T10:54:45.100Z,10.45
2022-11-03T10:57:14.561Z,7.75
2022-11-03T10:59:45.824Z,7.80
2022-11-03T11:02:20.379Z,9.65
2022-11-03T11:04:49.815Z,7.45
2022-11-03T11:07:26.333Z,8.55
2022-11-03T11:09:55.416Z,7.72
2022-11-03T11:12:25.942Z,7.57
2022-11-03T11:14:59.547Z,7.90
2022-11-03T11:17:42.533Z,9.00
2022-11-03T11:20:21.646Z,8.73
2022-11-03T11:22:50.878Z,9.05
2022-11-03T11:25:19.766Z,8.60
2022-11-03T11:27:58.212Z,8.63
2022-11-03T11:30:30.284Z,9.00
2022-11-03T11:33:13.920Z,8.38
2022-11-03T11:35:42.368Z,8.07
2022-11-03T11:39:05.095Z,8.57
2022-11-03T11:42:10.666Z,6.43
2022-11-03T11:45:10.467Z,5.18
2022-11-03T11:47:47.210Z,5.30
2022-11-03T11:50:17.400Z,6.25
2022-11-03T11:52:59.778Z,5.45
2022-11-03T11:55:31.154Z,6.22
2022-11-03T11:58:02.018Z,6.68
2022-11-03T12:00:33.255Z,6.80
2022-11-03T12:03:04.042Z,6.38
2022-11-03T12:05:36.115Z,6.68
2022-11-03T12:08:18.856Z,5.63
2022-11-03T12:11:02.023Z,5.82
2022-11-03T12:13:53.055Z,6.30
2022-11-03T12:16:38.424Z,6.07
2022-11-03T12:19:35.920Z,5.97
2022-11-03T12:22:07.006Z,6.43
2022-11-03T12:24:50.557Z,7.00
2022-11-03T12:29:54.071Z,7.65
2022-11-03T12:32:33.463Z,6.40
2022-11-03T12:35:06.111Z,6.40
2022-11-03T12:37:35.425Z,6.93
2022-11-03T12:40:04.588Z,6.25
2022-11-03T12:42:33.125Z,6.78
2022-11-03T12:45:01.397Z,7.28
2022-11-03T12:47:32.453Z,6.32
2022-11-03T12:50:00.962Z,6.28
2022-11-03T12:52:29.432Z,6.32
2022-11-03T12:54:57.669Z,6.03
2022-11-03T12:57:26.154Z,6.32
2022-11-03T12:59:54.653Z,6.18
2022-11-03T13:02:23.166Z,6.60
2022-11-03T13:04:52.062Z,6.22
2022-11-03T13:07:26.816Z,6.68
2022-11-03T13:09:58.882Z,6.72
2022-11-03T13:12:33.182Z,6.97
2022-11-03T13:15:04.881Z,7.15
2022-11-03T13:17:51.911Z,6.97
2022-11-03T13:20:23.168Z,7.90
2022-11-03T13:22:52.404Z,7.50
2022-11-03T13:25:20.466Z,8.45
2022-11-03T13:27:53.932Z,7.50
2022-11-03T13:30:24.528Z,7.53
2022-11-03T13:32:53.863Z,8.68
2022-11-03T13:35:22.060Z,8.73
2022-11-03T13:37:50.561Z,6.40
2022-11-03T13:40:50.272Z,7.38
2022-11-03T13:43:08.047Z,7.07
2022-11-03T13:45:37.325Z,6.60
2022-11-03T13:51:19.148Z,5.70
2022-11-03T13:59:26.252Z,7.10
2022-11-03T14:04:44.926Z,7.32
2022-11-03T14:07:13.765Z,8.57
2022-11-03T14:09:42.249Z,9.32
2022-11-03T14:12:28.663Z,9.05
2022-11-03T14:15:11.530Z,9.25
2022-11-03T14:17:40.834Z,8.90
2022-11-03T14:20:12.215Z,9.00
2022-11-03T14:22:41.258Z,9.07
2022-11-03T14:25:10.154Z,8.93
2022-11-03T14:27:39.618Z,10.20
2022-11-03T14:30:08.221Z,10.25
2022-11-03T14:32:37.284Z,11.05
2022-11-03T14:35:05.934Z,12.13
2022-11-03T14:37:33.959Z,11.82
2022-11-03T14:40:03.208Z,11.65
2022-11-03T14:42:31.889Z,11.13
2022-11-03T14:44:59.929Z,11.88
2022-11-03T14:47:31.548Z,12.48
2022-11-03T14:49:59.527Z,11.00
2022-11-03T14:52:28.430Z,11.35
2022-11-03T14:54:56.919Z,10.93
2022-11-03T14:57:25.447Z,10.48
2022-11-03T14:59:53.888Z,11.90
2022-11-03T15:02:22.723Z,12.32
2022-11-03T15:04:50.811Z,12.10
2022-11-03T15:07:18.827Z,13.35
2022-11-03T15:09:47.227Z,15.02
2022-11-03T15:12:15.764Z,15.13
2022-11-03T15:14:44.514Z,15.02
2022-11-03T15:17:12.989Z,14.95
2022-11-03T15:19:41.390Z,15.70
2022-11-03T15:22:10.372Z,13.73
2022-11-03T15:27:27.384Z,14.93
2022-11-03T15:29:55.992Z,16.80
2022-11-03T15:32:24.356Z,16.00
2022-11-03T15:34:52.580Z,17.92
2022-11-03T15:37:20.759Z,17.70
2022-11-03T15:39:49.376Z,18.25
2022-11-03T15:42:18.528Z,18.05
2022-11-03T15:44:46.989Z,17.80
2022-11-03T15:47:15.135Z,18.45
2022-11-03T15:49:43.591Z,18.77
2022-11-03T15:52:11.678Z,18.67
2022-11-03T15:54:43.000Z,21.75
2022-11-03T15:57:11.324Z,19.55
2022-11-03T16:00:00.415Z,22.08
2022-11-03T16:02:41.564Z,20.95
2022-11-03T16:05:11.024Z,22.02
2022-11-03T16:07:40.115Z,21.92
2022-11-03T16:10:09.463Z,21.60
2022-11-03T16:12:37.651Z,20.75
2022-11-03T16:15:06.295Z,22.95
2022-11-03T16:17:34.986Z,23.05
2022-11-03T16:20:03.907Z,22.00
2022-11-03T16:22:31.970Z,22.58
2022-11-03T16:25:01.010Z,22.42
2022-11-03T16:27:32.405Z,22.23
2022-11-03T16:30:01.231Z,22.52
2022-11-03T16:32:31.424Z,21.52
2022-11-03T16:34:59.935Z,20.98
2022-11-03T16:37:29.372Z,21.70
2022-11-03T16:39:57.818Z,22.30
2022-11-03T16:42:26.010Z,23.55
2022-11-03T16:44:55.580Z,25.45
2022-11-03T16:47:27.122Z,32.88
2022-11-03T16:49:57.053Z,35.80
2022-11-03T16:52:26.317Z,32.55
2022-11-03T16:54:54.701Z,32.78
2022-11-03T16:57:23.395Z,34.28
2022-11-03T16:59:52.063Z,32.92
2022-11-03T17:02:20.760Z,26.23
2022-11-03T17:04:50.157Z,22.95
2022-11-03T17:07:18.291Z,23.30
2022-11-03T17:09:47.223Z,19.60
2022-11-03T17:12:16.088Z,21.73
2022-11-03T17:14:44.073Z,34.08
2022-11-03T17:17:12.191Z,24.85
2022-11-03T17:19:40.642Z,33.65
2022-11-03T17:22:09.721Z,37.03
2022-11-03T17:24:37.828Z,37.78
2022-11-03T17:27:17.862Z,30.60
2022-11-03T17:29:50.862Z,25.73
2022-11-03T17:32:39.642Z,26.17
2022-11-03T17:35:42.187Z,21.20
2022-11-03T17:38:16.748Z,22.67
2022-11-03T17:40:47.009Z,23.25
2022-11-03T17:43:24.296Z,23.35
2022-11-03T17:45:52.805Z,23.17
2022-11-03T17:48:23.301Z,24.77
2022-11-03T17:50:55.436Z,26.50
2022-11-03T17:53:25.534Z,27.58
2022-11-03T17:56:27.866Z,30.75
2022-11-03T17:58:46.905Z,38.28
2022-11-03T18:01:23.480Z,39.60
2022-11-03T18:03:54.902Z,42.28
2022-11-03T18:06:23.302Z,37.58
2022-11-03T18:08:51.464Z,36.05
2022-11-03T18:11:47.107Z,29.80
2022-11-03T18:14:16.168Z,29.30
2022-11-03T18:16:44.313Z,28.45
2022-11-03T18:19:14.268Z,20.13
2022-11-03T18:21:43.971Z,19.88
2022-11-03T18:24:18.268Z,21.77
2022-11-03T18:26:46.493Z,21.80
2022-11-03T18:29:14.470Z,21.95
2022-11-03T18:31:47.329Z,24.77
2022-11-03T18:34:21.632Z,27.73
2022-11-03T18:36:50.330Z,26.92
2022-11-03T18:39:29.935Z,21.08
2022-11-03T18:41:59.073Z,21.58
2022-11-03T18:44:29.749Z,17.83
2022-11-03T18:46:58.744Z,19.33
2022-11-03T18:49:27.718Z,21.75
2022-11-03T18:52:04.007Z,26.58
2022-11-03T18:54:35.649Z,25.55
2022-11-03T18:57:04.514Z,34.13
2022-11-03T18:59:37.125Z,42.33
2022-11-03T19:02:19.829Z,42.78
2022-11-03T19:04:49.401Z,49.28
2022-11-03T19:07:31.920Z,61.22
2022-11-03T19:10:01.248Z,59.40
2022-11-03T19:12:29.248Z,86.68
2022-11-03T19:14:57.954Z,75.28
2022-11-03T19:17:26.609Z,58.75
2022-11-03T19:19:55.627Z,56.22
2022-11-03T19:22:24.493Z,61.92
2022-11-03T19:24:52.554Z,47.80
2022-11-03T19:27:29.065Z,30.20
2022-11-03T19:29:58.263Z,27.95
2022-11-03T19:32:31.614Z,30.30
2022-11-03T19:37:36.294Z,29.60
2022-11-03T19:40:11.901Z,37.58
2022-11-03T19:42:39.953Z,32.90
2022-11-03T19:45:13.553Z,33.60
2022-11-03T19:50:35.339Z,27.27
2022-11-03T19:53:07.366Z,22.35
2022-11-03T19:55:38.785Z,23.63
2022-11-03T19:58:19.281Z,24.52
2022-11-03T20:00:48.709Z,24.17
2022-11-03T20:03:17.594Z,23.45
2022-11-03T20:05:49.666Z,22.83
2022-11-03T20:08:22.342Z,23.27
2022-11-03T20:10:52.857Z,25.80
2022-11-03T20:13:28.913Z,40.17
2022-11-03T20:16:01.123Z,31.80
2022-11-03T20:18:29.790Z,30.25
2022-11-03T20:20:58.424Z,36.00
2022-11-03T20:23:31.441Z,33.85
2022-11-03T20:26:00.123Z,44.78
2022-11-03T20:28:32.426Z,53.10
2022-11-03T20:31:03.975Z,55.60
2022-11-03T20:33:32.762Z,58.40
2022-11-03T20:36:02.621Z,37.55
2022-11-03T20:38:31.302Z,37.10
2022-11-03T20:41:04.380Z,35.97
2022-11-03T20:43:37.981Z,34.13
2022-11-03T20:46:35.968Z,33.13
2022-11-03T20:49:04.167Z,32.75
2022-11-03T20:51:35.534Z,34.90
2022-11-03T20:54:04.231Z,36.40
2022-11-03T20:56:32.551Z,48.88
2022-11-03T20:59:00.536Z,42.08
2022-11-03T21:01:33.482Z,40.03
2022-11-03T21:04:03.247Z,50.92
2022-11-03T21:06:33.459Z,50.05
2022-11-03T21:09:02.019Z,54.55
2022-11-03T21:11:39.928Z,40.33
2022-11-03T21:14:26.323Z,46.92
2022-11-03T21:17:12.877Z,44.45
2022-11-03T21:19:59.431Z,43.13
2022-11-03T21:22:57.687Z,46.20
2022-11-03T21:25:26.206Z,39.58
2022-11-03T21:27:54.991Z,40.60
2022-11-03T21:30:23.707Z,37.83
2022-11-03T21:32:51.738Z,40.97
2022-11-03T21:35:21.918Z,34.90
2022-11-03T21:37:50.595Z,35.88
2022-11-03T21:40:19.179Z,38.25
2022-11-03T21:43:06.371Z,31.95
2022-11-03T21:45:34.993Z,35.80
2022-11-03T21:48:22.355Z,35.10
2022-11-03T21:51:09.663Z,34.50
2022-11-03T21:53:38.126Z,33.45
2022-11-03T21:56:07.172Z,30.88
2022-11-03T21:58:37.337Z,32.22
2022-11-03T22:01:06.758Z,32.45
2022-11-03T22:03:35.694Z,33.33
2022-11-03T22:06:07.395Z,34.08
2022-11-03T22:08:36.002Z,33.53
2022-11-03T22:11:24.277Z,34.30
2022-11-03T22:13:56.095Z,32.85
2022-11-03T22:16:37.188Z,29.38
2022-11-03T22:19:40.172Z,30.40
2022-11-03T22:22:32.177Z,27.75
2022-11-03T22:25:19.331Z,28.85
2022-11-03T22:27:47.618Z,28.10
2022-11-03T22:30:34.839Z,28.65
2022-11-03T22:33:03.643Z,33.55
2022-11-03T22:35:50.117Z,32.05
2022-11-03T22:38:21.218Z,32.90
2022-11-03T22:41:08.520Z,28.98
2022-11-03T22:43:55.108Z,26.48
2022-11-03T22:46:23.943Z,22.48
2022-11-03T22:48:51.824Z,24.52
2022-11-03T22:51:19.778Z,26.52
2022-11-03T22:54:06.249Z,25.27
2022-11-03T22:56:35.219Z,25.85
2022-11-03T22:59:04.828Z,20.65
2022-11-03T23:01:33.019Z,22.23
2022-11-03T23:04:01.887Z,23.08
2022-11-03T23:06:35.450Z,19.33
2022-11-03T23:09:04.647Z,20.95
2022-11-03T23:11:34.033Z,19.88
2022-11-03T23:14:10.523Z,21.17
2022-11-03T23:16:45.452Z,21.73
2022-11-03T23:19:34.378Z,22.80
2022-11-03T23:22:02.404Z,22.48
2022-11-03T23:24:49.094Z,23.27
2022-11-03T23:27:17.454Z,24.42
2022-11-03T23:29:46.472Z,24.90
2022-11-03T23:32:14.496Z,25.58
2022-11-03T23:34:42.643Z,23.88
2022-11-03T23:37:10.598Z,23.90
2022-11-03T23:39:39.208Z,25.25
2022-11-03T23:42:08.800Z,24.02
2022-11-03T23:44:55.440Z,25.50
2022-11-03T23:47:41.708Z,23.13
2022-11-03T23:50:10.267Z,25.58
2022-11-03T23:52:38.965Z,23.27
2022-11-03T23:55:07.791Z,20.70
2022-11-03T23:57:55.084Z,19.52
